sensor_id;sensor_type;location;lat;lon;timestamp;P1;durP1;ratioP1;P2;durP2;ratioP2
66830;SDS011;53739;44.224;22.528;2022-07-29T02:10:51;14.27;;;9.63;;
66830;SDS011;53739;44.224;22.528;2022-07-29T02:13:29;11.40;;;8.30;;
66830;SDS011;53739;44.224;22.528;2022-07-29T02:15:57;9.50;;;8.13;;
66830;SDS011;53739;44.224;22.528;2022-07-29T02:18:25;9.93;;;7.22;;
66830;SDS011;53739;44.224;22.528;2022-07-29T02:21:05;11.90;;;8.23;;
66830;SDS011;53739;44.224;22.528;2022-07-29T02:23:41;10.70;;;9.60;;
66830;SDS011;53739;44.224;22.528;2022-07-29T02:26:09;10.63;;;9.25;;
66830;SDS011;53739;44.224;22.528;2022-07-29T02:28:36;11.25;;;8.55;;
66830;SDS011;53739;44.224;22.528;2022-07-29T02:31:06;11.77;;;9.70;;
66830;SDS011;53739;44.224;22.528;2022-07-29T02:33:33;11.60;;;9.35;;
66830;SDS011;53739;44.224;22.528;2022-07-29T02:36:01;11.20;;;9.35;;
66830;SDS011;53739;44.224;22.528;2022-07-29T02:38:28;11.00;;;8.48;;
66830;SDS011;53739;44.224;22.528;2022-07-29T02:41:15;13.75;;;8.73;;
66830;SDS011;53739;44.224;22.528;2022-07-29T02:43:48;10.02;;;8.82;;
66830;SDS011;53739;44.224;22.528;2022-07-29T02:46:26;10.73;;;8.88;;
66830;SDS011;53739;44.224;22.528;2022-07-29T02:48:58;11.43;;;8.48;;
66830;SDS011;53739;44.224;22.528;2022-07-29T02:51:54;11.60;;;8.88;;
66830;SDS011;53739;44.224;22.528;2022-07-29T02:54:36;9.75;;;8.25;;
66830;SDS011;53739;44.224;22.528;2022-07-29T02:57:20;15.10;;;8.38;;
66830;SDS011;53739;44.224;22.528;2022-07-29T02:59:53;12.68;;;8.55;;
66830;SDS011;53739;44.224;22.528;2022-07-29T03:02:24;13.05;;;9.10;;
66830;SDS011;53739;44.224;22.528;2022-07-29T03:04:52;13.40;;;8.90;;
66830;SDS011;53739;44.224;22.528;2022-07-29T03:07:20;9.93;;;8.45;;
66830;SDS011;53739;44.224;22.528;2022-07-29T03:09:52;12.68;;;9.55;;
66830;SDS011;53739;44.224;22.528;2022-07-29T03:12:18;13.15;;;9.63;;
66830;SDS011;53739;44.224;22.528;2022-07-29T03:14:45;12.25;;;9.95;;
66830;SDS011;53739;44.224;22.528;2022-07-29T03:17:12;11.40;;;8.98;;
66830;SDS011;53739;44.224;22.528;2022-07-29T03:19:38;12.18;;;9.70;;
66830;SDS011;53739;44.224;22.528;2022-07-29T03:22:04;13.68;;;8.77;;
66830;SDS011;53739;44.224;22.528;2022-07-29T03:24:35;14.07;;;9.05;;
66830;SDS011;53739;44.224;22.528;2022-07-29T03:27:02;11.35;;;9.02;;
66830;SDS011;53739;44.224;22.528;2022-07-29T03:29:30;10.93;;;9.35;;
66830;SDS011;53739;44.224;22.528;2022-07-29T03:31:57;13.65;;;9.65;;
66830;SDS011;53739;44.224;22.528;2022-07-29T03:34:23;11.63;;;10.20;;
66830;SDS011;53739;44.224;22.528;2022-07-29T03:36:49;15.05;;;9.63;;
66830;SDS011;53739;44.224;22.528;2022-07-29T03:39:17;11.68;;;8.90;;
66830;SDS011;53739;44.224;22.528;2022-07-29T03:41:47;11.15;;;9.05;;
66830;SDS011;53739;44.224;22.528;2022-07-29T03:44:15;13.40;;;9.68;;
66830;SDS011;53739;44.224;22.528;2022-07-29T03:46:43;10.10;;;9.10;;
66830;SDS011;53739;44.224;22.528;2022-07-29T03:49:11;10.57;;;9.13;;
66830;SDS011;53739;44.224;22.528;2022-07-29T03:51:39;10.27;;;9.20;;
66830;SDS011;53739;44.224;22.528;2022-07-29T03:54:05;12.70;;;10.80;;
66830;SDS011;53739;44.224;22.528;2022-07-29T03:56:32;15.80;;;9.85;;
66830;SDS011;53739;44.224;22.528;2022-07-29T03:59:00;13.15;;;9.35;;
66830;SDS011;53739;44.224;22.528;2022-07-29T04:01:27;14.18;;;8.93;;
66830;SDS011;53739;44.224;22.528;2022-07-29T04:03:55;12.48;;;9.45;;
66830;SDS011;53739;44.224;22.528;2022-07-29T04:06:21;11.30;;;9.82;;
66830;SDS011;53739;44.224;22.528;2022-07-29T04:08:47;16.35;;;10.15;;
66830;SDS011;53739;44.224;22.528;2022-07-29T04:11:13;15.55;;;11.50;;
66830;SDS011;53739;44.224;22.528;2022-07-29T04:13:39;14.43;;;10.75;;
66830;SDS011;53739;44.224;22.528;2022-07-29T04:16:05;12.45;;;10.73;;
66830;SDS011;53739;44.224;22.528;2022-07-29T04:18:31;18.00;;;11.30;;
66830;SDS011;53739;44.224;22.528;2022-07-29T04:20:56;10.68;;;9.32;;
66830;SDS011;53739;44.224;22.528;2022-07-29T04:23:25;16.90;;;10.93;;
66830;SDS011;53739;44.224;22.528;2022-07-29T04:25:52;12.00;;;10.50;;
66830;SDS011;53739;44.224;22.528;2022-07-29T04:28:18;12.27;;;9.50;;
66830;SDS011;53739;44.224;22.528;2022-07-29T04:30:44;13.38;;;10.73;;
66830;SDS011;53739;44.224;22.528;2022-07-29T04:33:10;13.55;;;10.73;;
66830;SDS011;53739;44.224;22.528;2022-07-29T04:35:36;12.90;;;11.57;;
66830;SDS011;53739;44.224;22.528;2022-07-29T04:38:03;18.00;;;11.65;;
66830;SDS011;53739;44.224;22.528;2022-07-29T04:40:30;19.10;;;12.18;;
66830;SDS011;53739;44.224;22.528;2022-07-29T04:42:58;18.13;;;13.45;;
66830;SDS011;53739;44.224;22.528;2022-07-29T04:45:25;17.60;;;14.93;;
66830;SDS011;53739;44.224;22.528;2022-07-29T04:47:51;16.83;;;14.60;;
66830;SDS011;53739;44.224;22.528;2022-07-29T04:50:17;17.55;;;15.32;;
66830;SDS011;53739;44.224;22.528;2022-07-29T04:52:42;18.13;;;14.85;;
66830;SDS011;53739;44.224;22.528;2022-07-29T04:55:08;16.75;;;14.68;;
66830;SDS011;53739;44.224;22.528;2022-07-29T04:57:34;20.85;;;16.88;;
66830;SDS011;53739;44.224;22.528;2022-07-29T05:00:00;18.85;;;16.20;;
66830;SDS011;53739;44.224;22.528;2022-07-29T05:02:26;17.52;;;15.30;;
66830;SDS011;53739;44.224;22.528;2022-07-29T05:04:52;21.42;;;17.95;;
66830;SDS011;53739;44.224;22.528;2022-07-29T05:07:18;21.20;;;17.35;;
66830;SDS011;53739;44.224;22.528;2022-07-29T05:09:44;17.13;;;15.32;;
66830;SDS011;53739;44.224;22.528;2022-07-29T05:12:10;24.67;;;15.95;;
66830;SDS011;53739;44.224;22.528;2022-07-29T05:14:36;16.38;;;14.63;;
66830;SDS011;53739;44.224;22.528;2022-07-29T05:17:02;17.30;;;15.10;;
66830;SDS011;53739;44.224;22.528;2022-07-29T05:19:28;20.35;;;15.57;;
66830;SDS011;53739;44.224;22.528;2022-07-29T05:21:54;21.73;;;16.08;;
66830;SDS011;53739;44.224;22.528;2022-07-29T05:24:20;26.50;;;20.83;;
66830;SDS011;53739;44.224;22.528;2022-07-29T05:26:46;26.00;;;23.35;;
66830;SDS011;53739;44.224;22.528;2022-07-29T05:29:12;22.60;;;20.50;;
66830;SDS011;53739;44.224;22.528;2022-07-29T05:31:37;20.05;;;17.95;;
66830;SDS011;53739;44.224;22.528;2022-07-29T05:34:03;21.70;;;19.30;;
66830;SDS011;53739;44.224;22.528;2022-07-29T05:36:29;18.30;;;16.48;;
66830;SDS011;53739;44.224;22.528;2022-07-29T05:38:55;19.45;;;17.13;;
66830;SDS011;53739;44.224;22.528;2022-07-29T05:41:20;17.08;;;15.15;;
66830;SDS011;53739;44.224;22.528;2022-07-29T05:43:46;19.35;;;16.80;;
66830;SDS011;53739;44.224;22.528;2022-07-29T05:46:12;17.02;;;14.52;;
66830;SDS011;53739;44.224;22.528;2022-07-29T05:48:39;20.58;;;15.68;;
66830;SDS011;53739;44.224;22.528;2022-07-29T05:51:05;19.00;;;15.68;;
66830;SDS011;53739;44.224;22.528;2022-07-29T05:53:31;16.95;;;15.07;;
66830;SDS011;53739;44.224;22.528;2022-07-29T05:55:56;19.85;;;15.23;;
66830;SDS011;53739;44.224;22.528;2022-07-29T05:58:22;17.23;;;14.80;;
66830;SDS011;53739;44.224;22.528;2022-07-29T06:00:51;20.20;;;16.13;;
66830;SDS011;53739;44.224;22.528;2022-07-29T06:03:17;19.05;;;16.63;;
66830;SDS011;53739;44.224;22.528;2022-07-29T06:05:43;17.55;;;15.48;;
66830;SDS011;53739;44.224;22.528;2022-07-29T06:08:09;18.35;;;16.25;;
66830;SDS011;53739;44.224;22.528;2022-07-29T06:10:35;16.63;;;14.93;;
66830;SDS011;53739;44.224;22.528;2022-07-29T06:13:01;19.38;;;17.38;;
66830;SDS011;53739;44.224;22.528;2022-07-29T06:15:27;18.65;;;16.85;;
66830;SDS011;53739;44.224;22.528;2022-07-29T06:17:52;16.70;;;14.90;;
66830;SDS011;53739;44.224;22.528;2022-07-29T06:20:18;19.42;;;15.57;;
66830;SDS011;53739;44.224;22.528;2022-07-29T06:22:44;18.08;;;15.48;;
66830;SDS011;53739;44.224;22.528;2022-07-29T06:25:10;20.77;;;16.35;;
66830;SDS011;53739;44.224;22.528;2022-07-29T06:27:36;19.90;;;15.40;;
66830;SDS011;53739;44.224;22.528;2022-07-29T06:30:03;18.88;;;16.88;;
66830;SDS011;53739;44.224;22.528;2022-07-29T06:32:31;18.10;;;15.57;;
66830;SDS011;53739;44.224;22.528;2022-07-29T06:34:58;17.05;;;15.27;;
66830;SDS011;53739;44.224;22.528;2022-07-29T06:37:24;15.68;;;13.98;;
66830;SDS011;53739;44.224;22.528;2022-07-29T06:39:50;17.80;;;15.75;;
66830;SDS011;53739;44.224;22.528;2022-07-29T06:42:44;18.83;;;15.07;;
66830;SDS011;53739;44.224;22.528;2022-07-29T06:45:19;18.25;;;16.35;;
66830;SDS011;53739;44.224;22.528;2022-07-29T06:47:44;18.92;;;14.48;;
66830;SDS011;53739;44.224;22.528;2022-07-29T06:50:10;18.80;;;15.88;;
66830;SDS011;53739;44.224;22.528;2022-07-29T06:52:37;20.77;;;15.82;;
66830;SDS011;53739;44.224;22.528;2022-07-29T06:55:04;19.80;;;15.45;;
66830;SDS011;53739;44.224;22.528;2022-07-29T06:57:30;16.88;;;15.05;;
66830;SDS011;53739;44.224;22.528;2022-07-29T06:59:56;16.88;;;14.45;;
66830;SDS011;53739;44.224;22.528;2022-07-29T07:02:22;23.20;;;15.90;;
66830;SDS011;53739;44.224;22.528;2022-07-29T07:04:54;17.17;;;15.30;;
66830;SDS011;53739;44.224;22.528;2022-07-29T07:07:25;20.40;;;17.77;;
66830;SDS011;53739;44.224;22.528;2022-07-29T07:09:51;19.17;;;15.93;;
66830;SDS011;53739;44.224;22.528;2022-07-29T07:12:17;20.15;;;17.10;;
66830;SDS011;53739;44.224;22.528;2022-07-29T07:14:43;19.83;;;17.83;;
66830;SDS011;53739;44.224;22.528;2022-07-29T07:17:08;18.25;;;16.27;;
66830;SDS011;53739;44.224;22.528;2022-07-29T07:19:34;18.08;;;16.23;;
66830;SDS011;53739;44.224;22.528;2022-07-29T07:22:00;19.35;;;17.55;;
66830;SDS011;53739;44.224;22.528;2022-07-29T07:24:26;19.88;;;17.45;;
66830;SDS011;53739;44.224;22.528;2022-07-29T07:26:52;20.67;;;17.95;;
66830;SDS011;53739;44.224;22.528;2022-07-29T07:29:18;19.92;;;17.80;;
66830;SDS011;53739;44.224;22.528;2022-07-29T07:31:44;18.67;;;16.77;;
66830;SDS011;53739;44.224;22.528;2022-07-29T07:34:10;20.17;;;18.05;;
66830;SDS011;53739;44.224;22.528;2022-07-29T07:36:36;19.83;;;17.63;;
66830;SDS011;53739;44.224;22.528;2022-07-29T07:39:02;19.77;;;17.65;;
66830;SDS011;53739;44.224;22.528;2022-07-29T07:41:30;19.33;;;17.33;;
66830;SDS011;53739;44.224;22.528;2022-07-29T07:43:56;23.17;;;17.90;;
66830;SDS011;53739;44.224;22.528;2022-07-29T07:46:36;21.38;;;17.90;;
66830;SDS011;53739;44.224;22.528;2022-07-29T07:49:05;20.25;;;18.30;;
66830;SDS011;53739;44.224;22.528;2022-07-29T07:51:42;22.30;;;16.70;;
66830;SDS011;53739;44.224;22.528;2022-07-29T07:54:10;19.35;;;16.38;;
66830;SDS011;53739;44.224;22.528;2022-07-29T07:56:36;21.33;;;17.42;;
66830;SDS011;53739;44.224;22.528;2022-07-29T07:59:02;20.77;;;17.05;;
66830;SDS011;53739;44.224;22.528;2022-07-29T08:01:30;19.80;;;16.92;;
66830;SDS011;53739;44.224;22.528;2022-07-29T08:03:59;18.33;;;16.48;;
66830;SDS011;53739;44.224;22.528;2022-07-29T08:06:28;18.88;;;16.95;;
66830;SDS011;53739;44.224;22.528;2022-07-29T08:09:05;18.30;;;16.13;;
66830;SDS011;53739;44.224;22.528;2022-07-29T08:11:46;19.50;;;16.45;;
66830;SDS011;53739;44.224;22.528;2022-07-29T08:14:19;18.98;;;15.60;;
66830;SDS011;53739;44.224;22.528;2022-07-29T08:16:55;18.70;;;16.83;;
66830;SDS011;53739;44.224;22.528;2022-07-29T08:19:20;18.48;;;16.38;;
66830;SDS011;53739;44.224;22.528;2022-07-29T08:21:46;19.77;;;16.75;;
66830;SDS011;53739;44.224;22.528;2022-07-29T08:24:12;22.35;;;16.98;;
66830;SDS011;53739;44.224;22.528;2022-07-29T08:26:57;17.60;;;15.98;;
66830;SDS011;53739;44.224;22.528;2022-07-29T08:29:32;18.95;;;17.08;;
66830;SDS011;53739;44.224;22.528;2022-07-29T08:32:01;20.10;;;16.40;;
66830;SDS011;53739;44.224;22.528;2022-07-29T08:34:29;18.05;;;16.23;;
66830;SDS011;53739;44.224;22.528;2022-07-29T08:47:26;19.23;;;14.90;;
66830;SDS011;53739;44.224;22.528;2022-07-29T08:56:31;15.90;;;14.25;;
66830;SDS011;53739;44.224;22.528;2022-07-29T08:58:58;20.05;;;14.68;;
66830;SDS011;53739;44.224;22.528;2022-07-29T09:01:27;18.25;;;14.45;;
66830;SDS011;53739;44.224;22.528;2022-07-29T09:03:57;15.63;;;13.98;;
66830;SDS011;53739;44.224;22.528;2022-07-29T09:06:37;17.98;;;14.13;;
66830;SDS011;53739;44.224;22.528;2022-07-29T09:09:09;15.38;;;13.25;;
66830;SDS011;53739;44.224;22.528;2022-07-29T09:11:35;15.05;;;13.55;;
66830;SDS011;53739;44.224;22.528;2022-07-29T09:14:01;18.58;;;13.55;;
66830;SDS011;53739;44.224;22.528;2022-07-29T09:16:43;17.17;;;13.35;;
66830;SDS011;53739;44.224;22.528;2022-07-29T09:19:24;15.65;;;14.10;;
66830;SDS011;53739;44.224;22.528;2022-07-29T09:22:04;14.70;;;13.23;;
66830;SDS011;53739;44.224;22.528;2022-07-29T09:27:26;15.05;;;13.65;;
66830;SDS011;53739;44.224;22.528;2022-07-29T09:32:57;14.13;;;12.73;;
66830;SDS011;53739;44.224;22.528;2022-07-29T09:35:26;14.85;;;13.32;;
66830;SDS011;53739;44.224;22.528;2022-07-29T09:38:09;17.95;;;13.27;;
66830;SDS011;53739;44.224;22.528;2022-07-29T09:40:38;15.52;;;13.93;;
66830;SDS011;53739;44.224;22.528;2022-07-29T09:43:11;15.00;;;13.63;;
66830;SDS011;53739;44.224;22.528;2022-07-29T09:45:40;14.85;;;13.27;;
66830;SDS011;53739;44.224;22.528;2022-07-29T09:48:22;13.10;;;11.73;;
66830;SDS011;53739;44.224;22.528;2022-07-29T09:50:49;14.90;;;12.82;;
66830;SDS011;53739;44.224;22.528;2022-07-29T09:53:33;14.77;;;13.27;;
66830;SDS011;53739;44.224;22.528;2022-07-29T09:56:08;15.55;;;13.95;;
66830;SDS011;53739;44.224;22.528;2022-07-29T09:58:35;13.30;;;11.95;;
66830;SDS011;53739;44.224;22.528;2022-07-29T10:01:01;16.63;;;14.18;;
66830;SDS011;53739;44.224;22.528;2022-07-29T10:03:31;14.68;;;13.23;;
66830;SDS011;53739;44.224;22.528;2022-07-29T10:06:04;17.25;;;13.30;;
66830;SDS011;53739;44.224;22.528;2022-07-29T10:08:39;14.40;;;12.90;;
66830;SDS011;53739;44.224;22.528;2022-07-29T10:11:13;14.98;;;13.57;;
66830;SDS011;53739;44.224;22.528;2022-07-29T10:13:41;13.95;;;12.65;;
66830;SDS011;53739;44.224;22.528;2022-07-29T10:16:09;16.83;;;13.15;;
66830;SDS011;53739;44.224;22.528;2022-07-29T10:18:46;14.45;;;12.85;;
66830;SDS011;53739;44.224;22.528;2022-07-29T10:21:12;14.32;;;11.77;;
66830;SDS011;53739;44.224;22.528;2022-07-29T10:23:38;14.48;;;11.60;;
66830;SDS011;53739;44.224;22.528;2022-07-29T10:26:06;15.52;;;13.45;;
66830;SDS011;53739;44.224;22.528;2022-07-29T10:28:32;12.98;;;11.77;;
66830;SDS011;53739;44.224;22.528;2022-07-29T10:31:52;12.95;;;11.80;;
66830;SDS011;53739;44.224;22.528;2022-07-29T10:55:38;13.25;;;11.93;;
66830;SDS011;53739;44.224;22.528;2022-07-29T10:58:13;14.80;;;11.05;;
66830;SDS011;53739;44.224;22.528;2022-07-29T11:00:42;14.32;;;12.82;;
66830;SDS011;53739;44.224;22.528;2022-07-29T11:03:09;12.88;;;11.57;;
66830;SDS011;53739;44.224;22.528;2022-07-29T11:05:58;13.07;;;11.35;;
66830;SDS011;53739;44.224;22.528;2022-07-29T11:08:29;13.02;;;11.50;;
66830;SDS011;53739;44.224;22.528;2022-07-29T11:13:57;13.57;;;12.13;;
66830;SDS011;53739;44.224;22.528;2022-07-29T11:16:57;12.55;;;11.35;;
66830;SDS011;53739;44.224;22.528;2022-07-29T11:19:27;19.92;;;12.82;;
66830;SDS011;53739;44.224;22.528;2022-07-29T11:21:53;13.35;;;11.98;;
66830;SDS011;53739;44.224;22.528;2022-07-29T11:24:21;15.57;;;12.90;;
66830;SDS011;53739;44.224;22.528;2022-07-29T11:27:07;16.10;;;12.15;;
66830;SDS011;53739;44.224;22.528;2022-07-29T11:29:34;13.88;;;12.52;;
66830;SDS011;53739;44.224;22.528;2022-07-29T11:32:08;13.80;;;11.40;;
66830;SDS011;53739;44.224;22.528;2022-07-29T11:34:44;16.23;;;12.00;;
66830;SDS011;53739;44.224;22.528;2022-07-29T11:37:14;13.95;;;12.18;;
66830;SDS011;53739;44.224;22.528;2022-07-29T11:39:45;13.95;;;11.95;;
66830;SDS011;53739;44.224;22.528;2022-07-29T11:45:05;13.00;;;11.70;;
66830;SDS011;53739;44.224;22.528;2022-07-29T11:47:36;13.18;;;11.75;;
66830;SDS011;53739;44.224;22.528;2022-07-29T11:50:04;14.38;;;11.88;;
66830;SDS011;53739;44.224;22.528;2022-07-29T11:52:44;14.10;;;10.90;;
66830;SDS011;53739;44.224;22.528;2022-07-29T11:55:12;11.63;;;10.43;;
66830;SDS011;53739;44.224;22.528;2022-07-29T11:57:50;13.95;;;11.77;;
66830;SDS011;53739;44.224;22.528;2022-07-29T12:00:25;16.25;;;11.27;;
66830;SDS011;53739;44.224;22.528;2022-07-29T12:05:18;12.43;;;11.02;;
66830;SDS011;53739;44.224;22.528;2022-07-29T12:07:45;15.55;;;11.13;;
66830;SDS011;53739;44.224;22.528;2022-07-29T12:10:14;11.85;;;10.02;;
66830;SDS011;53739;44.224;22.528;2022-07-29T12:12:41;11.07;;;9.93;;
66830;SDS011;53739;44.224;22.528;2022-07-29T12:15:13;12.68;;;10.57;;
66830;SDS011;53739;44.224;22.528;2022-07-29T12:17:45;14.18;;;11.68;;
66830;SDS011;53739;44.224;22.528;2022-07-29T12:20:12;12.60;;;11.40;;
66830;SDS011;53739;44.224;22.528;2022-07-29T12:22:40;12.00;;;10.50;;
66830;SDS011;53739;44.224;22.528;2022-07-29T12:25:09;12.13;;;11.02;;
66830;SDS011;53739;44.224;22.528;2022-07-29T12:27:37;16.35;;;10.75;;
66830;SDS011;53739;44.224;22.528;2022-07-29T12:30:04;14.48;;;10.85;;
66830;SDS011;53739;44.224;22.528;2022-07-29T12:32:33;12.30;;;10.10;;
66830;SDS011;53739;44.224;22.528;2022-07-29T12:35:01;12.63;;;11.30;;
66830;SDS011;53739;44.224;22.528;2022-07-29T12:37:29;11.77;;;10.57;;
66830;SDS011;53739;44.224;22.528;2022-07-29T12:39:56;12.00;;;10.70;;
66830;SDS011;53739;44.224;22.528;2022-07-29T12:42:22;12.55;;;10.93;;
66830;SDS011;53739;44.224;22.528;2022-07-29T12:44:48;11.95;;;10.45;;
66830;SDS011;53739;44.224;22.528;2022-07-29T12:47:16;12.25;;;10.93;;
66830;SDS011;53739;44.224;22.528;2022-07-29T12:49:43;13.48;;;11.40;;
66830;SDS011;53739;44.224;22.528;2022-07-29T12:52:22;12.35;;;10.57;;
66830;SDS011;53739;44.224;22.528;2022-07-29T12:54:53;14.73;;;10.68;;
66830;SDS011;53739;44.224;22.528;2022-07-29T12:57:19;12.32;;;10.60;;
66830;SDS011;53739;44.224;22.528;2022-07-29T12:59:45;14.70;;;9.93;;
66830;SDS011;53739;44.224;22.528;2022-07-29T13:02:23;11.07;;;9.95;;
66830;SDS011;53739;44.224;22.528;2022-07-29T13:04:55;11.27;;;10.02;;
66830;SDS011;53739;44.224;22.528;2022-07-29T13:07:24;11.52;;;10.40;;
66830;SDS011;53739;44.224;22.528;2022-07-29T13:09:52;11.27;;;9.70;;
66830;SDS011;53739;44.224;22.528;2022-07-29T13:12:18;11.90;;;10.48;;
66830;SDS011;53739;44.224;22.528;2022-07-29T13:14:44;11.75;;;10.38;;
66830;SDS011;53739;44.224;22.528;2022-07-29T13:17:13;14.43;;;9.80;;
66830;SDS011;53739;44.224;22.528;2022-07-29T13:19:42;12.60;;;9.55;;
66830;SDS011;53739;44.224;22.528;2022-07-29T13:22:13;12.05;;;9.38;;
66830;SDS011;53739;44.224;22.528;2022-07-29T13:27:17;11.75;;;10.55;;
66830;SDS011;53739;44.224;22.528;2022-07-29T13:29:44;13.55;;;9.95;;
66830;SDS011;53739;44.224;22.528;2022-07-29T13:32:10;11.98;;;9.32;;
66830;SDS011;53739;44.224;22.528;2022-07-29T13:34:37;11.90;;;9.82;;
66830;SDS011;53739;44.224;22.528;2022-07-29T13:37:03;12.60;;;9.93;;
66830;SDS011;53739;44.224;22.528;2022-07-29T13:39:29;10.23;;;9.20;;
66830;SDS011;53739;44.224;22.528;2022-07-29T13:41:55;13.30;;;10.48;;
66830;SDS011;53739;44.224;22.528;2022-07-29T13:44:21;10.13;;;9.10;;
66830;SDS011;53739;44.224;22.528;2022-07-29T13:46:47;10.55;;;9.45;;
66830;SDS011;53739;44.224;22.528;2022-07-29T13:49:12;10.30;;;9.20;;
66830;SDS011;53739;44.224;22.528;2022-07-29T13:51:38;10.35;;;9.25;;
66830;SDS011;53739;44.224;22.528;2022-07-29T13:54:04;10.45;;;9.05;;
66830;SDS011;53739;44.224;22.528;2022-07-29T13:56:30;11.45;;;10.25;;
66830;SDS011;53739;44.224;22.528;2022-07-29T13:58:56;11.10;;;10.00;;
66830;SDS011;53739;44.224;22.528;2022-07-29T14:01:22;11.88;;;9.15;;
66830;SDS011;53739;44.224;22.528;2022-07-29T14:03:48;13.13;;;8.52;;
66830;SDS011;53739;44.224;22.528;2022-07-29T14:06:15;15.95;;;9.23;;
66830;SDS011;53739;44.224;22.528;2022-07-29T14:08:41;11.18;;;8.60;;
66830;SDS011;53739;44.224;22.528;2022-07-29T14:11:06;10.77;;;8.30;;
66830;SDS011;53739;44.224;22.528;2022-07-29T14:13:32;11.07;;;8.13;;
66830;SDS011;53739;44.224;22.528;2022-07-29T14:15:58;8.85;;;7.90;;
66830;SDS011;53739;44.224;22.528;2022-07-29T14:18:24;10.52;;;8.05;;
66830;SDS011;53739;44.224;22.528;2022-07-29T14:20:50;11.05;;;8.48;;
66830;SDS011;53739;44.224;22.528;2022-07-29T14:23:16;9.25;;;8.07;;
66830;SDS011;53739;44.224;22.528;2022-07-29T14:25:42;8.85;;;7.95;;
66830;SDS011;53739;44.224;22.528;2022-07-29T14:28:08;13.80;;;8.13;;
66830;SDS011;53739;44.224;22.528;2022-07-29T14:30:34;9.93;;;8.27;;
66830;SDS011;53739;44.224;22.528;2022-07-29T14:32:59;10.77;;;9.05;;
66830;SDS011;53739;44.224;22.528;2022-07-29T14:35:25;10.65;;;7.97;;
66830;SDS011;53739;44.224;22.528;2022-07-29T14:37:51;10.57;;;8.30;;
66830;SDS011;53739;44.224;22.528;2022-07-29T14:40:17;9.60;;;8.00;;
66830;SDS011;53739;44.224;22.528;2022-07-29T14:42:43;9.05;;;8.15;;
66830;SDS011;53739;44.224;22.528;2022-07-29T14:45:09;9.20;;;8.25;;
66830;SDS011;53739;44.224;22.528;2022-07-29T14:47:36;8.85;;;7.95;;
66830;SDS011;53739;44.224;22.528;2022-07-29T14:50:03;8.95;;;8.02;;
66830;SDS011;53739;44.224;22.528;2022-07-29T14:52:30;10.73;;;7.95;;
66830;SDS011;53739;44.224;22.528;2022-07-29T14:54:55;10.45;;;8.48;;
66830;SDS011;53739;44.224;22.528;2022-07-29T14:57:21;15.77;;;7.97;;
66830;SDS011;53739;44.224;22.528;2022-07-29T14:59:47;10.38;;;8.73;;
66830;SDS011;53739;44.224;22.528;2022-07-29T15:02:13;11.93;;;8.18;;
66830;SDS011;53739;44.224;22.528;2022-07-29T15:04:39;12.65;;;8.10;;
66830;SDS011;53739;44.224;22.528;2022-07-29T15:07:05;14.30;;;9.35;;
66830;SDS011;53739;44.224;22.528;2022-07-29T15:09:31;10.85;;;8.38;;
66830;SDS011;53739;44.224;22.528;2022-07-29T15:11:57;9.55;;;8.52;;
66830;SDS011;53739;44.224;22.528;2022-07-29T15:14:23;9.73;;;7.97;;
66830;SDS011;53739;44.224;22.528;2022-07-29T15:16:49;10.07;;;8.10;;
66830;SDS011;53739;44.224;22.528;2022-07-29T15:19:15;8.98;;;7.85;;
66830;SDS011;53739;44.224;22.528;2022-07-29T15:21:40;8.60;;;7.80;;
66830;SDS011;53739;44.224;22.528;2022-07-29T15:24:06;10.45;;;8.45;;
66830;SDS011;53739;44.224;22.528;2022-07-29T15:26:32;11.73;;;9.02;;
66830;SDS011;53739;44.224;22.528;2022-07-29T15:28:59;12.55;;;8.88;;
66830;SDS011;53739;44.224;22.528;2022-07-29T15:31:25;12.38;;;8.70;;
66830;SDS011;53739;44.224;22.528;2022-07-29T15:33:51;9.57;;;8.43;;
66830;SDS011;53739;44.224;22.528;2022-07-29T15:36:16;12.93;;;9.30;;
66830;SDS011;53739;44.224;22.528;2022-07-29T15:38:42;12.10;;;8.45;;
66830;SDS011;53739;44.224;22.528;2022-07-29T15:41:12;10.32;;;8.75;;
66830;SDS011;53739;44.224;22.528;2022-07-29T15:43:42;12.38;;;9.00;;
66830;SDS011;53739;44.224;22.528;2022-07-29T15:46:12;10.80;;;8.90;;
66830;SDS011;53739;44.224;22.528;2022-07-29T15:48:57;10.00;;;8.18;;
66830;SDS011;53739;44.224;22.528;2022-07-29T15:51:23;9.77;;;8.88;;
66830;SDS011;53739;44.224;22.528;2022-07-29T15:53:49;12.02;;;8.68;;
66830;SDS011;53739;44.224;22.528;2022-07-29T15:56:15;10.30;;;8.88;;
66830;SDS011;53739;44.224;22.528;2022-07-29T15:58:41;9.95;;;8.77;;
66830;SDS011;53739;44.224;22.528;2022-07-29T16:01:07;12.68;;;9.07;;
66830;SDS011;53739;44.224;22.528;2022-07-29T16:03:33;10.48;;;9.23;;
66830;SDS011;53739;44.224;22.528;2022-07-29T16:05:59;10.43;;;8.50;;
66830;SDS011;53739;44.224;22.528;2022-07-29T16:08:25;10.02;;;9.05;;
66830;SDS011;53739;44.224;22.528;2022-07-29T16:10:51;10.98;;;8.48;;
66830;SDS011;53739;44.224;22.528;2022-07-29T16:13:16;13.55;;;8.95;;
66830;SDS011;53739;44.224;22.528;2022-07-29T16:15:43;9.70;;;8.70;;
66830;SDS011;53739;44.224;22.528;2022-07-29T16:18:09;10.77;;;8.88;;
66830;SDS011;53739;44.224;22.528;2022-07-29T16:20:35;11.05;;;9.25;;
66830;SDS011;53739;44.224;22.528;2022-07-29T16:23:01;10.43;;;9.02;;
66830;SDS011;53739;44.224;22.528;2022-07-29T16:25:27;14.10;;;9.20;;
66830;SDS011;53739;44.224;22.528;2022-07-29T16:27:53;11.68;;;9.38;;
66830;SDS011;53739;44.224;22.528;2022-07-29T16:30:19;9.95;;;8.73;;
66830;SDS011;53739;44.224;22.528;2022-07-29T16:32:47;10.55;;;9.32;;
66830;SDS011;53739;44.224;22.528;2022-07-29T16:35:13;11.35;;;9.15;;
66830;SDS011;53739;44.224;22.528;2022-07-29T16:37:38;9.18;;;8.27;;
66830;SDS011;53739;44.224;22.528;2022-07-29T16:40:05;13.07;;;9.60;;
66830;SDS011;53739;44.224;22.528;2022-07-29T16:42:32;10.63;;;9.43;;
66830;SDS011;53739;44.224;22.528;2022-07-29T16:44:59;12.88;;;8.48;;
66830;SDS011;53739;44.224;22.528;2022-07-29T16:47:25;12.07;;;9.18;;
66830;SDS011;53739;44.224;22.528;2022-07-29T16:49:51;11.25;;;8.95;;
66830;SDS011;53739;44.224;22.528;2022-07-29T16:52:17;10.10;;;9.10;;
66830;SDS011;53739;44.224;22.528;2022-07-29T16:54:43;18.10;;;9.32;;
66830;SDS011;53739;44.224;22.528;2022-07-29T16:57:08;10.85;;;8.98;;
66830;SDS011;53739;44.224;22.528;2022-07-29T16:59:35;13.45;;;9.30;;
66830;SDS011;53739;44.224;22.528;2022-07-29T17:02:02;11.73;;;9.48;;
66830;SDS011;53739;44.224;22.528;2022-07-29T17:04:28;13.52;;;9.73;;
66830;SDS011;53739;44.224;22.528;2022-07-29T17:06:55;13.70;;;9.55;;
66830;SDS011;53739;44.224;22.528;2022-07-29T17:09:22;12.85;;;9.80;;
66830;SDS011;53739;44.224;22.528;2022-07-29T17:11:48;11.95;;;9.32;;
66830;SDS011;53739;44.224;22.528;2022-07-29T17:14:18;11.73;;;9.85;;
66830;SDS011;53739;44.224;22.528;2022-07-29T17:16:44;10.57;;;9.55;;
66830;SDS011;53739;44.224;22.528;2022-07-29T17:19:10;13.20;;;10.18;;
66830;SDS011;53739;44.224;22.528;2022-07-29T17:21:36;12.68;;;9.90;;
66830;SDS011;53739;44.224;22.528;2022-07-29T17:24:02;15.40;;;11.25;;
66830;SDS011;53739;44.224;22.528;2022-07-29T17:26:28;11.38;;;9.77;;
66830;SDS011;53739;44.224;22.528;2022-07-29T17:28:54;13.48;;;10.70;;